Time;durP1;ratioP1;P1;durP2;ratioP2;P2;SDS_P1;SDS_P2;PMS_P1;PMS_P2;Temp;Humidity;BMP_temperature;BMP_pressure;BME280_temperature;BME280_humidity;BME280_pressure;Samples;Min_cycle;Max_cycle;Signal;HPM_P1;HPM_P2
2021/01/21 04:09:01;;;;;;;40.35;20.05;;;0.60;99.90;;;;;;5387319;23;20230;-70
2021/01/21 04:11:26;;;;;;;39.65;19.83;;;0.50;99.90;;;;;;5065738;28;20194;-70
2021/01/21 04:13:53;;;;;;;40.38;21.17;;;;;;;;;;5060566;28;20214;-72
2021/01/21 04:16:18;;;;;;;34.20;19.40;;;0.60;99.90;;;;;;5052825;28;20172;-74
2021/01/21 04:18:44;;;;;;;39.08;19.67;;;0.60;99.90;;;;;;5034191;28;20200;-70
2021/01/21 04:21:09;;;;;;;43.83;20.70;;;0.60;99.90;;;;;;5034461;28;20594;-73
2021/01/21 04:23:36;;;;;;;41.20;20.00;;;;;;;;;;5052356;28;20204;-74
2021/01/21 04:26:02;;;;;;;40.97;19.45;;;0.50;99.90;;;;;;5034794;28;20167;-70
2021/01/21 04:28:28;;;;;;;42.70;19.33;;;0.90;99.90;;;;;;5052664;28;20199;-70
2021/01/21 04:30:53;;;;;;;42.30;20.08;;;0.70;99.90;;;;;;5052452;28;20172;-70
2021/01/21 04:33:19;;;;;;;38.88;19.25;;;0.70;99.90;;;;;;5052366;28;20204;-73
2021/01/21 04:35:45;;;;;;;42.22;19.27;;;0.70;99.90;;;;;;5034809;28;20248;-74
2021/01/21 04:38:11;;;;;;;38.13;20.25;;;0.70;99.90;;;;;;5034197;28;20203;-74
2021/01/21 04:40:36;;;;;;;39.35;20.38;;;0.60;99.90;;;;;;5052334;28;20543;-74
2021/01/21 04:43:02;;;;;;;48.25;21.10;;;0.70;99.90;;;;;;5034446;28;20283;-74
2021/01/21 04:45:28;;;;;;;38.45;19.23;;;0.70;99.90;;;;;;5052103;28;20542;-74
2021/01/21 04:47:54;;;;;;;39.83;20.55;;;0.70;99.90;;;;;;5052145;28;20192;-74
2021/01/21 04:50:20;;;;;;;41.42;21.83;;;0.70;99.90;;;;;;5052389;28;20234;-74
2021/01/21 04:52:50;;;;;;;41.58;21.85;;;0.80;99.90;;;;;;5051987;28;20270;-74
2021/01/21 04:55:21;;;;;;;35.53;19.83;;;0.80;99.90;;;;;;5034257;28;20258;-74
2021/01/21 04:57:55;;;;;;;38.17;19.55;;;0.80;99.90;;;;;;5034301;28;20303;-74
2021/01/21 05:00:22;;;;;;;41.97;20.45;;;0.90;99.90;;;;;;5051249;28;20164;-73
2021/01/21 05:02:49;;;;;;;39.13;20.20;;;0.80;99.90;;;;;;5051977;28;20192;-74
2021/01/21 05:05:16;;;;;;;45.08;21.38;;;0.80;99.90;;;;;;5052109;28;20622;-74
2021/01/21 05:07:42;;;;;;;41.53;21.95;;;0.90;99.90;;;;;;5051993;28;20172;-74
2021/01/21 05:10:08;;;;;;;46.75;22.38;;;0.80;99.90;;;;;;5033752;28;20553;-74
2021/01/21 05:12:35;;;;;;;46.40;22.90;;;0.80;99.90;;;;;;5051799;28;20702;-74
2021/01/21 05:15:02;;;;;;;42.55;22.85;;;0.70;99.90;;;;;;5051030;28;20617;-73
2021/01/21 05:17:28;;;;;;;45.72;21.77;;;0.60;99.90;;;;;;5051807;28;20247;-73
2021/01/21 05:19:54;;;;;;;46.92;21.02;;;0.70;99.90;;;;;;5051875;28;20648;-73
2021/01/21 05:22:20;;;;;;;47.80;22.25;;;0.70;99.90;;;;;;5051744;28;20213;-73
2021/01/21 05:24:47;;;;;;;37.60;20.77;;;0.60;99.90;;;;;;5051181;28;20338;-73
2021/01/21 05:27:15;;;;;;;43.22;20.38;;;0.70;99.90;;;;;;5051681;28;20634;-73
2021/01/21 05:29:45;;;;;;;35.78;19.13;;;0.70;99.90;;;;;;5051623;28;20187;-73
2021/01/21 05:32:15;;;;;;;37.78;19.02;;;0.70;99.90;;;;;;5055325;28;20183;-73
2021/01/21 05:34:44;;;;;;;30.92;16.63;;;0.60;99.90;;;;;;5056080;28;20568;-74
2021/01/21 05:37:11;;;;;;;26.77;16.42;;;0.60;99.90;;;;;;5055722;28;20171;-74
2021/01/21 05:39:42;;;;;;;25.45;14.52;;;0.70;99.90;;;;;;5055526;28;20204;-74
2021/01/21 05:42:09;;;;;;;23.20;13.82;;;0.70;99.90;;;;;;5037648;28;20172;-74
2021/01/21 05:44:35;;;;;;;18.00;12.55;;;0.70;99.90;;;;;;5055018;28;20219;-74
2021/01/21 05:47:09;;;;;;;14.88;10.77;;;0.80;99.90;;;;;;5055777;28;20255;-74
2021/01/21 05:49:36;;;;;;;17.80;12.05;;;0.80;99.90;;;;;;5037411;28;20195;-74
2021/01/21 05:52:03;;;;;;;13.75;10.60;;;0.80;99.90;;;;;;5055636;28;20198;-73
2021/01/21 05:54:30;;;;;;;12.82;10.93;;;0.80;99.90;;;;;;5054970;28;20337;-74
2021/01/21 05:56:58;;;;;;;14.38;10.68;;;0.80;99.90;;;;;;5037465;28;20238;-73
2021/01/21 05:59:25;;;;;;;15.00;10.40;;;0.80;99.90;;;;;;5037275;28;20200;-73
2021/01/21 06:01:56;;;;;;;14.32;11.10;;;0.80;99.90;;;;;;5037403;28;20174;-73
2021/01/21 06:04:28;;;;;;;15.98;11.70;;;0.70;99.90;;;;;;5055202;28;20190;-73
2021/01/21 06:06:54;;;;;;;15.07;11.65;;;0.60;99.90;;;;;;5055534;28;20168;-73
2021/01/21 06:09:28;;;;;;;17.88;11.55;;;0.60;99.90;;;;;;5045202;28;20231;-73
2021/01/21 06:11:59;;;;;;;14.23;10.93;;;0.70;99.90;;;;;;5035173;28;20257;-73
2021/01/21 06:14:25;;;;;;;16.95;12.23;;;0.60;99.90;;;;;;5033881;28;20236;-74
2021/01/21 06:16:55;;;;;;;14.40;11.40;;;0.60;99.90;;;;;;5035272;28;20267;-73
2021/01/21 06:19:21;;;;;;;15.50;11.65;;;0.60;99.90;;;;;;5017268;28;20309;-73
2021/01/21 06:21:59;;;;;;;17.08;11.32;;;0.60;99.90;;;;;;5035035;28;20187;-73
2021/01/21 06:24:29;;;;;;;14.20;11.50;;;0.60;99.90;;;;;;5016223;28;20412;-72
2021/01/21 06:26:58;;;;;;;15.57;11.43;;;0.60;99.90;;;;;;5035031;28;20407;-72
2021/01/21 06:29:27;;;;;;;16.95;11.27;;;0.70;99.90;;;;;;5034132;28;20658;-73
2021/01/21 06:31:55;;;;;;;13.45;10.70;;;0.70;99.90;;;;;;5043366;28;20273;-73
2021/01/21 06:34:25;;;;;;;13.00;10.90;;;0.60;99.90;;;;;;5042789;28;20647;-73
2021/01/21 06:37:00;;;;;;;11.50;10.02;;;0.50;99.90;;;;;;5054570;28;20163;-73
2021/01/21 06:39:32;;;;;;;15.57;10.75;;;0.50;99.90;;;;;;5037343;28;20591;-75
2021/01/21 06:42:01;;;;;;;15.98;9.70;;;0.50;99.90;;;;;;5015656;28;20548;-74
2021/01/21 06:44:27;;;;;;;16.73;12.30;;;0.50;99.90;;;;;;5034360;28;20204;-74
2021/01/21 06:46:53;;;;;;;15.95;11.85;;;0.60;99.90;;;;;;5038527;28;20241;-74
2021/01/21 06:49:21;;;;;;;15.48;11.20;;;0.60;99.90;;;;;;5035506;28;20231;-74
2021/01/21 06:51:49;;;;;;;15.68;12.48;;;0.60;99.90;;;;;;5034254;28;20177;-70
2021/01/21 06:54:16;;;;;;;20.83;12.75;;;0.60;99.90;;;;;;5033642;28;20242;-70
2021/01/21 06:56:42;;;;;;;13.57;10.80;;;0.60;99.90;;;;;;5027118;28;20466;-70
2021/01/21 06:59:07;;;;;;;16.85;11.13;;;0.60;99.90;;;;;;5044182;28;20231;-71
2021/01/21 07:01:33;;;;;;;16.73;12.77;;;0.60;99.90;;;;;;5042258;28;20183;-71
2021/01/21 07:04:25;;;;;;;14.55;11.15;;;0.50;99.90;;;;;;5043730;28;20270;-71
2021/01/21 07:06:53;;;;;;;16.35;12.25;;;0.60;99.90;;;;;;5044244;28;20199;-70
2021/01/21 07:09:24;;;;;;;14.98;11.70;;;0.70;99.90;;;;;;5042472;28;20228;-71
2021/01/21 07:11:53;;;;;;;17.00;11.70;;;0.70;99.90;;;;;;5042205;28;20172;-71
2021/01/21 07:14:24;;;;;;;14.68;11.27;;;0.70;99.90;;;;;;5043485;28;20204;-71
2021/01/21 07:16:59;;;;;;;17.13;11.93;;;0.70;99.90;;;;;;5041337;28;20186;-69
2021/01/21 07:19:43;;;;;;;13.98;11.35;;;0.70;99.90;;;;;;5041658;28;20192;-69
2021/01/21 07:22:23;;;;;;;14.80;11.60;;;0.80;99.90;;;;;;5035962;28;20203;-70
2021/01/21 07:24:59;;;;;;;16.10;10.30;;;0.80;99.90;;;;;;5031519;28;20179;-69
2021/01/21 07:27:28;;;;;;;17.85;12.15;;;0.90;99.90;;;;;;5033167;28;20536;-70
2021/01/21 07:30:23;;;;;;;16.65;11.95;;;0.80;99.90;;;;;;5033681;28;20223;-69
2021/01/21 07:33:09;;;;;;;15.98;12.05;;;0.80;99.90;;;;;;5032978;28;20662;-69
2021/01/21 07:35:38;;;;;;;13.55;11.20;;;0.80;99.90;;;;;;5015218;28;20192;-70
2021/01/21 07:38:04;;;;;;;16.20;12.32;;;0.80;99.90;;;;;;5032829;28;20192;-69
2021/01/21 07:40:49;;;;;;;15.93;11.48;;;0.80;99.90;;;;;;5033255;28;20252;-70
2021/01/21 07:43:14;;;;;;;17.17;13.40;;;0.80;99.90;;;;;;5015237;28;20220;-68
2021/01/21 07:45:41;;;;;;;21.30;13.40;;;0.90;99.90;;;;;;5015385;28;20669;-68
2021/01/21 07:48:22;;;;;;;19.05;13.32;;;0.80;99.90;;;;;;5032617;28;20263;-68
2021/01/21 07:50:50;;;;;;;20.30;14.15;;;0.90;99.90;;;;;;5015477;28;20223;-69
2021/01/21 07:53:23;;;;;;;24.65;15.68;;;0.90;99.90;;;;;;5032512;28;20204;-68
2021/01/21 07:55:50;;;;;;;20.02;14.90;;;0.80;99.90;;;;;;5033258;28;20642;-68
2021/01/21 07:58:16;;;;;;;21.35;14.30;;;0.90;99.90;;;;;;5032993;28;20252;-68
2021/01/21 08:00:43;;;;;;;22.50;15.23;;;0.90;99.90;;;;;;5015287;28;20210;-68
2021/01/21 08:03:09;;;;;;;22.17;15.93;;;0.90;99.90;;;;;;5014955;28;20196;-68
2021/01/21 08:05:35;;;;;;;25.90;16.50;;;0.90;99.90;;;;;;5032981;28;20226;-67
2021/01/21 08:08:03;;;;;;;27.65;16.08;;;1.00;99.90;;;;;;5032244;28;20197;-68
2021/01/21 08:10:36;;;;;;;23.13;15.18;;;1.00;99.90;;;;;;5032913;28;20183;-68
2021/01/21 08:13:14;;;;;;;23.25;17.05;;;1.00;99.90;;;;;;5032667;28;20304;-68
2021/01/21 08:15:40;;;;;;;27.27;17.40;;;1.00;99.90;;;;;;5032914;28;20657;-68
2021/01/21 08:18:05;;;;;;;26.33;18.00;;;1.10;99.90;;;;;;5014944;28;20562;-68
2021/01/21 08:20:34;;;;;;;30.73;20.40;;;1.00;99.90;;;;;;5035079;28;20187;-69
2021/01/21 08:23:05;;;;;;;31.40;21.48;;;1.00;99.90;;;;;;5043182;28;20279;-68
2021/01/21 08:25:38;;;;;;;29.60;19.08;;;1.00;99.90;;;;;;5038397;28;20176;-68
2021/01/21 08:28:04;;;;;;;33.28;21.10;;;1.00;99.90;;;;;;5032651;28;20215;-66
2021/01/21 08:30:30;;;;;;;32.95;20.73;;;1.00;99.90;;;;;;5033811;28;20183;-68
2021/01/21 08:33:06;;;;;;;28.00;19.13;;;1.10;99.90;;;;;;5052378;28;20192;-68
2021/01/21 08:35:35;;;;;;;30.73;20.98;;;1.10;99.90;;;;;;5051992;28;20233;-68
2021/01/21 08:38:03;;;;;;;32.38;20.85;;;1.10;99.90;;;;;;5040405;28;20196;-68
2021/01/21 08:40:29;;;;;;;33.20;21.10;;;1.10;99.90;;;;;;5032023;28;20173;-68
2021/01/21 08:42:55;;;;;;;33.70;22.63;;;1.20;99.90;;;;;;5012591;28;20242;-67
2021/01/21 08:45:27;;;;;;;30.77;20.80;;;1.20;99.90;;;;;;5041251;28;20167;-69
2021/01/21 08:47:54;;;;;;;31.25;20.88;;;1.20;99.90;;;;;;5034154;28;20192;-67
2021/01/21 08:50:21;;;;;;;26.05;19.45;;;1.20;99.90;;;;;;5051617;28;20222;-68
2021/01/21 08:53:04;;;;;;;33.65;20.77;;;1.20;99.90;;;;;;5051932;28;20220;-68
2021/01/21 08:55:39;;;;;;;33.67;21.35;;;1.20;99.90;;;;;;5051713;28;20179;-68
2021/01/21 08:58:06;;;;;;;32.55;22.80;;;1.20;99.90;;;;;;5051180;28;20187;-68
2021/01/21 09:00:33;;;;;;;32.33;21.33;;;1.20;99.90;;;;;;5046144;28;20378;-68
2021/01/21 09:02:59;;;;;;;36.03;22.40;;;1.20;99.90;;;;;;5031873;28;20269;-68
2021/01/21 09:05:26;;;;;;;35.83;24.40;;;1.10;99.90;;;;;;5031010;28;20169;-68
2021/01/21 09:08:01;;;;;;;34.30;23.58;;;1.10;99.90;;;;;;5031486;28;20274;-68
2021/01/21 09:10:36;;;;;;;35.80;23.58;;;1.20;99.90;;;;;;5027201;28;20645;-68
2021/01/21 09:13:02;;;;;;;35.92;24.25;;;1.20;99.90;;;;;;5031218;28;20196;-69
2021/01/21 09:15:28;;;;;;;36.28;24.23;;;1.20;99.90;;;;;;5013207;28;20227;-68
2021/01/21 09:18:05;;;;;;;34.33;24.10;;;1.30;99.90;;;;;;5031081;28;20583;-68
2021/01/21 09:20:32;;;;;;;35.97;24.10;;;1.30;99.90;;;;;;5012962;28;20547;-68
2021/01/21 09:23:21;;;;;;;35.78;24.15;;;1.30;99.90;;;;;;5016361;28;20211;-67
2021/01/21 09:25:48;;;;;;;35.90;23.23;;;1.30;99.90;;;;;;5051501;28;20250;-67
2021/01/21 09:28:14;;;;;;;31.25;23.13;;;1.30;99.90;;;;;;5051200;28;20654;-67
2021/01/21 09:30:41;;;;;;;34.28;23.25;;;1.20;99.90;;;;;;5033288;28;20175;-67
2021/01/21 09:33:07;;;;;;;33.90;23.88;;;1.30;99.90;;;;;;5051214;28;20199;-67
2021/01/21 09:35:33;;;;;;;32.33;23.30;;;1.30;99.90;;;;;;5032617;28;20234;-66
2021/01/21 09:38:00;;;;;;;35.92;25.00;;;1.30;99.90;;;;;;5050644;28;20191;-67
2021/01/21 09:40:28;;;;;;;34.40;23.45;;;1.30;99.90;;;;;;5031177;28;20194;-68
2021/01/21 09:42:56;;;;;;;33.28;24.52;;;1.30;99.90;;;;;;5013742;28;20200;-67
2021/01/21 09:45:23;;;;;;;31.15;23.23;;;1.20;99.90;;;;;;5031452;28;20164;-66
2021/01/21 09:47:50;;;;;;;32.42;23.63;;;1.20;99.90;;;;;;5030002;28;20206;-66
2021/01/21 09:50:17;;;;;;;31.20;23.00;;;1.20;99.90;;;;;;5051403;28;20250;-66
2021/01/21 09:52:43;;;;;;;33.00;22.80;;;1.20;99.90;;;;;;5033513;28;20168;-69
2021/01/21 09:55:09;;;;;;;31.63;21.65;;;1.10;99.90;;;;;;5050913;28;20207;-67
2021/01/21 09:57:35;;;;;;;29.63;21.85;;;1.10;99.90;;;;;;5051334;28;20164;-68
2021/01/21 10:00:01;;;;;;;28.75;21.90;;;1.20;99.90;;;;;;5033285;28;20182;-70
2021/01/21 10:02:27;;;;;;;27.30;20.90;;;1.20;99.90;;;;;;5027894;28;20355;-68
2021/01/21 10:04:53;;;;;;;26.65;19.33;;;1.10;99.90;;;;;;5042109;28;20617;-67
2021/01/21 10:07:18;;;;;;;25.13;18.52;;;1.10;99.90;;;;;;5038754;28;20710;-67
2021/01/21 10:09:44;;;;;;;24.98;18.15;;;1.20;99.90;;;;;;5012643;28;20789;-68
2021/01/21 10:12:10;;;;;;;24.95;18.17;;;1.20;99.90;;;;;;5047715;28;20171;-68
2021/01/21 10:14:36;;;;;;;27.10;20.08;;;1.20;99.90;;;;;;5050806;28;20215;-68
2021/01/21 10:17:03;;;;;;;28.05;20.98;;;1.20;99.90;;;;;;5052310;28;20168;-69
2021/01/21 10:19:29;;;;;;;30.02;20.65;;;1.20;99.90;;;;;;5047626;28;20289;-69
2021/01/21 10:21:55;;;;;;;30.80;22.30;;;1.10;99.90;;;;;;5016843;28;20374;-68
2021/01/21 10:24:21;;;;;;;30.10;21.50;;;1.10;99.90;;;;;;5033978;28;20200;-68
2021/01/21 10:26:48;;;;;;;26.02;20.52;;;1.10;99.90;;;;;;5034880;28;20161;-68
2021/01/21 10:29:13;;;;;;;29.00;20.48;;;1.20;99.90;;;;;;5034816;28;20200;-66
2021/01/21 10:31:40;;;;;;;29.38;21.73;;;1.20;99.90;;;;;;5034417;28;20173;-68
2021/01/21 10:34:06;;;;;;;27.17;21.25;;;1.20;99.90;;;;;;5034498;28;20634;-68
2021/01/21 10:36:32;;;;;;;25.00;18.08;;;1.20;99.90;;;;;;5041212;28;20656;-69
2021/01/21 10:38:58;;;;;;;26.52;18.95;;;1.30;99.90;;;;;;5054009;28;20204;-68
2021/01/21 10:41:24;;;;;;;23.83;17.92;;;1.30;99.90;;;;;;5054348;28;20222;-69
2021/01/21 10:43:50;;;;;;;24.77;17.25;;;1.30;99.90;;;;;;5053597;28;20202;-68
2021/01/21 10:46:16;;;;;;;22.58;16.80;;;1.20;99.90;;;;;;5054051;28;20173;-68
2021/01/21 10:48:42;;;;;;;19.58;15.23;;;1.20;99.90;;;;;;5054090;28;20208;-69
2021/01/21 10:51:08;;;;;;;16.63;13.32;;;1.30;99.90;;;;;;5044990;28;20196;-68
2021/01/21 10:53:34;;;;;;;20.48;14.00;;;1.20;99.90;;;;;;5034978;28;20208;-69
2021/01/21 10:56:00;;;;;;;15.95;13.85;;;1.20;99.90;;;;;;5053077;28;20626;-68
2021/01/21 10:58:25;;;;;;;17.40;13.95;;;1.20;99.90;;;;;;5021672;28;20278;-68
2021/01/21 11:00:51;;;;;;;15.55;13.20;;;1.10;99.90;;;;;;5033366;28;20595;-68
2021/01/21 11:03:17;;;;;;;16.33;13.63;;;1.10;99.90;;;;;;5034540;28;20188;-68
2021/01/21 11:05:43;;;;;;;18.00;13.85;;;1.10;99.90;;;;;;5040554;28;20180;-69
2021/01/21 11:08:10;;;;;;;21.95;14.85;;;1.10;99.90;;;;;;5030092;28;20232;-67
2021/01/21 11:10:36;;;;;;;17.35;14.95;;;1.10;99.90;;;;;;5053134;28;20630;-68
2021/01/21 11:13:03;;;;;;;17.80;14.32;;;1.10;99.90;;;;;;5035065;28;20203;-68
2021/01/21 11:15:29;;;;;;;19.33;14.90;;;1.10;99.90;;;;;;5032721;28;20222;-68
2021/01/21 11:17:55;;;;;;;22.45;16.50;;;1.10;99.90;;;;;;5035438;28;20191;-68
2021/01/21 11:20:21;;;;;;;23.45;17.67;;;1.10;99.90;;;;;;5047649;28;20176;-69
2021/01/21 11:22:47;;;;;;;20.83;16.58;;;1.20;99.90;;;;;;5041352;28;20287;-68
2021/01/21 11:25:13;;;;;;;21.95;16.90;;;1.20;99.90;;;;;;5033589;28;20262;-68
2021/01/21 11:27:39;;;;;;;22.95;16.52;;;1.20;99.90;;;;;;5030585;28;20180;-69
2021/01/21 11:30:07;;;;;;;29.13;20.45;;;1.10;99.90;;;;;;5031148;28;20666;-69
2021/01/21 11:32:33;;;;;;;26.52;20.73;;;1.20;99.90;;;;;;5033172;28;20173;-69
2021/01/21 11:34:59;;;;;;;25.15;19.85;;;1.20;99.90;;;;;;5033708;28;20200;-69
2021/01/21 11:37:25;;;;;;;26.35;17.73;;;1.30;99.90;;;;;;5033166;28;20173;-69
2021/01/21 11:39:52;;;;;;;24.77;19.17;;;1.30;99.90;;;;;;5033128;28;20534;-68
2021/01/21 11:42:18;;;;;;;22.58;18.25;;;1.40;99.90;;;;;;5033210;28;20172;-68
2021/01/21 11:44:43;;;;;;;21.45;17.67;;;1.40;99.90;;;;;;5033305;28;20180;-68
2021/01/21 11:47:09;;;;;;;22.60;16.70;;;1.50;99.90;;;;;;5033259;28;20247;-69
2021/01/21 11:49:35;;;;;;;19.77;17.02;;;1.50;99.90;;;;;;5032859;28;20270;-68
2021/01/21 11:52:00;;;;;;;19.15;15.80;;;1.50;99.90;;;;;;5040403;28;20172;-69
2021/01/21 11:54:26;;;;;;;20.73;16.08;;;1.50;99.90;;;;;;5034943;28;20223;-69
2021/01/21 11:56:52;;;;;;;18.63;14.75;;;1.50;99.90;;;;;;5039145;28;20639;-69
2021/01/21 11:59:18;;;;;;;22.27;17.50;;;1.40;99.90;;;;;;5041542;28;20661;-69
2021/01/21 12:01:43;;;;;;;19.42;15.63;;;1.40;99.90;;;;;;5040695;28;20199;-68
2021/01/21 12:04:09;;;;;;;19.80;15.88;;;1.40;99.90;;;;;;5041919;28;20192;-68
2021/01/21 12:06:35;;;;;;;19.55;15.57;;;1.50;99.90;;;;;;5034777;28;20176;-69
2021/01/21 12:09:03;;;;;;;19.95;17.10;;;1.50;99.90;;;;;;5052012;28;20366;-68
2021/01/21 12:11:29;;;;;;;21.20;16.90;;;1.40;99.90;;;;;;5031977;28;20210;-69
2021/01/21 12:13:55;;;;;;;20.42;15.80;;;1.50;99.90;;;;;;5043264;28;20218;-69
2021/01/21 12:16:21;;;;;;;19.40;14.25;;;1.50;99.90;;;;;;5032175;28;20172;-69
2021/01/21 12:18:47;;;;;;;17.67;14.80;;;1.60;99.90;;;;;;5042107;28;20234;-69
2021/01/21 12:21:12;;;;;;;19.02;15.65;;;1.60;99.90;;;;;;5042926;28;20864;-69
2021/01/21 12:23:38;;;;;;;17.90;15.55;;;1.60;99.90;;;;;;5036863;28;20232;-69
2021/01/21 12:26:06;;;;;;;19.00;15.40;;;1.60;99.90;;;;;;5042212;28;20548;-69
2021/01/21 12:28:35;;;;;;;17.23;15.13;;;1.60;99.90;;;;;;5040738;28;21076;-69
2021/01/21 12:31:02;;;;;;;15.95;13.95;;;1.70;99.90;;;;;;5040738;28;20173;-69
2021/01/21 12:33:27;;;;;;;18.48;15.82;;;1.70;99.90;;;;;;5041532;28;20295;-69
2021/01/21 12:35:53;;;;;;;16.60;14.57;;;1.70;99.90;;;;;;5042966;28;20282;-69
2021/01/21 12:38:19;;;;;;;19.30;15.40;;;1.60;99.90;;;;;;5043332;28;20188;-71
2021/01/21 12:40:45;;;;;;;17.05;15.07;;;1.70;99.90;;;;;;5032717;28;20168;-71
2021/01/21 12:43:11;;;;;;;17.48;15.05;;;1.70;99.90;;;;;;5051176;28;20218;-71
2021/01/21 12:45:37;;;;;;;18.38;15.73;;;1.60;99.90;;;;;;5052131;28;20263;-72
2021/01/21 12:48:02;;;;;;;19.08;15.82;;;1.60;99.90;;;;;;5052249;28;20575;-72
2021/01/21 12:50:28;;;;;;;21.05;16.80;;;1.60;99.90;;;;;;5034297;28;20249;-72
2021/01/21 12:52:54;;;;;;;21.77;17.67;;;1.60;99.90;;;;;;5047372;28;20602;-70
2021/01/21 12:55:20;;;;;;;22.73;18.08;;;1.60;99.90;;;;;;5041460;28;20207;-72
2021/01/21 12:57:47;;;;;;;21.02;17.88;;;1.60;99.90;;;;;;5032007;28;20559;-72
2021/01/21 13:00:14;;;;;;;24.08;18.80;;;1.60;99.90;;;;;;5031610;28;20172;-71
2021/01/21 13:02:39;;;;;;;21.70;17.25;;;1.60;99.90;;;;;;5029440;28;20192;-71
2021/01/21 13:05:06;;;;;;;21.75;17.83;;;1.70;99.90;;;;;;5040978;28;20639;-71
2021/01/21 13:07:32;;;;;;;25.10;18.90;;;1.70;99.90;;;;;;5041106;28;20182;-71
2021/01/21 13:09:57;;;;;;;25.65;19.35;;;1.60;99.90;;;;;;5037314;28;20227;-70
2021/01/21 13:12:23;;;;;;;25.15;18.33;;;1.70;99.90;;;;;;5040802;28;20634;-71
2021/01/21 13:14:49;;;;;;;20.80;16.48;;;1.70;99.90;;;;;;5038589;28;20239;-71
2021/01/21 13:17:15;;;;;;;22.60;18.13;;;1.70;99.90;;;;;;5032247;28;20163;-71
2021/01/21 13:19:42;;;;;;;19.65;16.67;;;1.70;99.90;;;;;;5040444;28;20200;-71
2021/01/21 13:22:07;;;;;;;23.35;17.95;;;1.70;99.90;;;;;;5023639;28;20616;-72
2021/01/21 13:24:33;;;;;;;22.08;17.17;;;1.70;99.90;;;;;;5026226;28;20192;-72
2021/01/21 13:26:59;;;;;;;22.25;16.98;;;1.70;99.90;;;;;;5038497;28;20596;-71
2021/01/21 13:29:25;;;;;;;21.45;18.23;;;1.70;99.90;;;;;;5023478;28;20219;-71
2021/01/21 13:31:51;;;;;;;22.88;18.38;;;1.70;99.90;;;;;;5049459;28;20521;-71
2021/01/21 13:34:17;;;;;;;23.38;17.05;;;1.80;99.90;;;;;;5013128;28;20277;-70
2021/01/21 13:36:42;;;;;;;22.83;16.92;;;1.70;99.90;;;;;;5033133;28;20181;-70
2021/01/21 13:39:08;;;;;;;23.42;18.77;;;1.80;99.90;;;;;;5012914;28;20251;-71
2021/01/21 13:41:34;;;;;;;25.50;18.58;;;1.80;99.90;;;;;;5031323;28;20631;-69
2021/01/21 13:44:00;;;;;;;24.73;18.95;;;1.70;99.90;;;;;;5030091;28;20196;-70
2021/01/21 13:46:27;;;;;;;26.15;19.20;;;1.80;99.90;;;;;;5012539;28;20570;-67
2021/01/21 13:48:53;;;;;;;25.52;18.83;;;1.80;99.90;;;;;;5031015;28;20199;-68
2021/01/21 13:51:19;;;;;;;24.83;18.83;;;1.80;99.90;;;;;;5031875;28;20541;-69
2021/01/21 13:53:45;;;;;;;27.00;20.27;;;1.90;99.90;;;;;;5037570;28;20254;-68
2021/01/21 13:56:10;;;;;;;25.80;19.17;;;1.90;99.90;;;;;;5047379;28;20671;-67
2021/01/21 13:58:36;;;;;;;28.60;20.25;;;2.00;99.90;;;;;;5040761;28;20216;-68
2021/01/21 14:01:02;;;;;;;28.48;20.13;;;2.00;99.90;;;;;;5035262;28;20546;-68
2021/01/21 14:03:28;;;;;;;26.25;19.98;;;2.00;99.90;;;;;;5054083;28;20658;-69
2021/01/21 14:05:53;;;;;;;29.95;20.63;;;2.00;99.90;;;;;;5047108;28;20181;-68
2021/01/21 14:08:19;;;;;;;23.80;19.30;;;2.00;99.90;;;;;;5044093;28;20227;-69
2021/01/21 14:10:45;;;;;;;27.85;19.95;;;2.00;99.90;;;;;;5027686;28;20184;-68
2021/01/21 14:13:15;;;;;;;29.85;20.45;;;2.00;99.90;;;;;;5048370;28;20192;-68
2021/01/21 14:15:41;;;;;;;27.40;20.45;;;2.00;99.90;;;;;;5034279;28;20208;-68
2021/01/21 14:18:10;;;;;;;27.05;20.35;;;2.00;99.90;;;;;;5054657;28;20738;-68
2021/01/21 14:20:37;;;;;;;26.40;19.52;;;2.10;99.90;;;;;;5054882;28;20631;-68
2021/01/21 14:23:03;;;;;;;30.33;21.15;;;2.10;99.90;;;;;;5054927;28;20180;-68
2021/01/21 14:25:29;;;;;;;28.67;20.77;;;2.10;99.90;;;;;;5054769;28;20164;-68
2021/01/21 14:27:55;;;;;;;27.08;20.27;;;2.10;99.90;;;;;;5036833;28;20196;-67
2021/01/21 14:30:21;;;;;;;27.77;20.02;;;2.10;99.90;;;;;;5054180;28;20250;-68
2021/01/21 14:32:47;;;;;;;28.88;20.48;;;2.10;99.90;;;;;;5036098;28;20571;-69
2021/01/21 14:35:14;;;;;;;33.50;20.80;;;2.00;99.90;;;;;;5054180;28;20211;-68
2021/01/21 14:37:40;;;;;;;30.67;20.67;;;2.00;99.90;;;;;;5045827;28;20177;-70
2021/01/21 14:40:07;;;;;;;26.23;20.13;;;2.00;99.90;;;;;;5048711;28;20172;-69
2021/01/21 14:42:33;;;;;;;31.90;26.63;;;;;;;;;;5034833;28;20498;-68
2021/01/21 14:44:59;;;;;;;30.17;22.85;;;2.00;99.90;;;;;;5054382;28;20168;-69
2021/01/21 14:47:25;;;;;;;30.52;22.08;;;2.00;99.90;;;;;;5036097;28;20190;-69
2021/01/21 14:49:51;;;;;;;31.98;20.77;;;2.10;99.90;;;;;;5053865;28;20224;-68
2021/01/21 14:52:17;;;;;;;34.58;23.30;;;2.10;99.90;;;;;;5053852;28;20416;-68
2021/01/21 14:54:43;;;;;;;29.15;21.77;;;2.10;99.90;;;;;;5053650;28;20215;-68
2021/01/21 14:57:08;;;;;;;33.83;22.67;;;2.10;99.90;;;;;;5049796;28;20639;-69
2021/01/21 14:59:36;;;;;;;31.70;22.45;;;2.10;99.90;;;;;;5034413;28;20185;-69
2021/01/21 15:02:02;;;;;;;32.80;21.30;;;2.10;99.90;;;;;;5034016;28;20164;-68
2021/01/21 15:04:27;;;;;;;29.65;21.30;;;2.00;99.90;;;;;;5036908;28;20192;-68
2021/01/21 15:06:53;;;;;;;29.77;21.27;;;2.00;99.90;;;;;;5046211;28;20185;-70
2021/01/21 15:09:19;;;;;;;32.58;22.05;;;2.00;99.90;;;;;;5038785;28;20228;-73
2021/01/21 15:11:45;;;;;;;31.98;22.23;;;2.00;99.90;;;;;;5032084;28;20188;-68
2021/01/21 15:14:11;;;;;;;32.33;22.48;;;2.10;99.90;;;;;;5014976;28;20259;-68
2021/01/21 15:16:36;;;;;;;31.75;21.48;;;2.10;99.90;;;;;;5032998;28;20173;-68
2021/01/21 15:19:02;;;;;;;31.05;21.25;;;2.10;99.90;;;;;;5036645;28;20199;-68
2021/01/21 15:21:28;;;;;;;35.22;22.20;;;2.10;99.90;;;;;;5036399;28;20191;-69
2021/01/21 15:23:53;;;;;;;34.30;23.02;;;2.10;99.90;;;;;;5044037;28;20219;-68
2021/01/21 15:26:19;;;;;;;31.38;21.90;;;2.10;99.90;;;;;;5035406;28;20639;-68
2021/01/21 15:28:45;;;;;;;32.55;22.55;;;2.10;99.90;;;;;;5053934;28;20191;-68
2021/01/21 15:31:15;;;;;;;29.65;20.83;;;2.10;99.90;;;;;;5041905;28;20549;-67
2021/01/21 15:33:40;;;;;;;30.95;21.30;;;2.10;99.90;;;;;;5053282;28;20204;-68
2021/01/21 15:36:06;;;;;;;26.88;19.20;;;2.00;99.90;;;;;;5053811;28;20183;-69
2021/01/21 15:38:32;;;;;;;25.65;18.70;;;2.00;99.90;;;;;;5053349;28;20608;-68
2021/01/21 15:41:00;;;;;;;28.13;18.13;;;2.00;99.90;;;;;;5053832;28;20230;-73
2021/01/21 15:43:27;;;;;;;28.08;18.67;;;2.00;99.90;;;;;;5053372;28;20191;-73
2021/01/21 15:45:53;;;;;;;26.00;19.15;;;1.90;99.90;;;;;;5047867;28;20169;-69
2021/01/21 15:48:18;;;;;;;25.98;18.20;;;1.90;99.90;;;;;;5034152;28;20245;-68
2021/01/21 15:50:44;;;;;;;26.42;18.38;;;1.90;99.90;;;;;;5027292;28;20183;-69
2021/01/21 15:53:10;;;;;;;26.52;19.27;;;1.90;99.90;;;;;;5034454;28;20191;-69
2021/01/21 15:55:36;;;;;;;26.08;17.45;;;1.90;99.90;;;;;;5041953;28;20215;-69
2021/01/21 15:58:01;;;;;;;26.27;19.33;;;1.90;99.90;;;;;;5024198;28;20199;-68
2021/01/21 16:00:27;;;;;;;26.58;18.13;;;1.90;99.90;;;;;;5043130;28;20252;-68
2021/01/21 16:02:53;;;;;;;26.23;18.85;;;1.90;99.90;;;;;;5040903;28;20198;-68
2021/01/21 16:05:18;;;;;;;29.90;20.10;;;1.90;99.90;;;;;;5028470;28;20257;-69
2021/01/21 16:07:44;;;;;;;27.17;18.95;;;1.90;99.90;;;;;;5032050;28;20664;-69
2021/01/21 16:10:10;;;;;;;28.10;18.90;;;1.90;99.90;;;;;;5032635;28;20253;-69
2021/01/21 16:12:36;;;;;;;26.65;17.65;;;1.90;99.90;;;;;;5042710;28;20200;-71
2021/01/21 16:15:02;;;;;;;27.50;21.40;;;1.90;99.90;;;;;;5035541;28;20452;-69
2021/01/21 16:17:27;;;;;;;25.02;17.92;;;1.90;99.90;;;;;;5041955;28;20177;-69
2021/01/21 16:19:53;;;;;;;24.92;16.27;;;1.90;99.90;;;;;;5040205;28;20172;-69
2021/01/21 16:22:19;;;;;;;25.83;18.13;;;1.90;99.90;;;;;;5025768;28;20200;-68
2021/01/21 16:24:46;;;;;;;22.65;16.20;;;1.80;99.90;;;;;;5040553;28;20188;-69
2021/01/21 16:27:12;;;;;;;22.33;17.38;;;1.80;99.90;;;;;;5034449;28;20172;-69
2021/01/21 16:29:38;;;;;;;22.90;17.15;;;1.80;99.90;;;;;;5032405;28;20654;-69
2021/01/21 16:32:05;;;;;;;23.85;17.40;;;1.70;99.90;;;;;;5032609;28;20173;-69
2021/01/21 16:34:30;;;;;;;26.17;17.73;;;1.70;99.90;;;;;;5035351;28;20743;-68
2021/01/21 16:36:56;;;;;;;23.83;17.10;;;1.80;99.90;;;;;;5034687;28;20450;-67
2021/01/21 16:39:22;;;;;;;24.40;17.52;;;1.80;99.90;;;;;;5025969;28;20198;-65
2021/01/21 16:41:48;;;;;;;23.00;16.77;;;1.80;99.90;;;;;;5030502;28;20223;-67
2021/01/21 16:44:13;;;;;;;26.17;17.52;;;1.80;99.90;;;;;;5045636;28;20206;-66
2021/01/21 16:46:43;;;;;;;21.83;16.90;;;1.80;99.90;;;;;;5043980;28;20167;-67